createdAt,value
2023-01-03T00:02:18.898Z,15.07
2023-01-03T00:04:49.742Z,15.52
2023-01-03T00:07:34.333Z,15.34
2023-01-03T00:10:09.522Z,15.31
2023-01-03T00:12:38.329Z,15.50
2023-01-03T00:15:06.221Z,15.33
2023-01-03T00:17:38.791Z,15.08
2023-01-03T00:20:07.189Z,14.80
2023-01-03T00:22:34.631Z,14.68
2023-01-03T00:25:02.298Z,14.50
2023-01-03T00:27:29.902Z,14.90
2023-01-03T00:29:57.161Z,14.48
2023-01-03T00:32:24.481Z,14.35
2023-01-03T00:34:51.738Z,14.48
2023-01-03T00:37:19.127Z,14.43
2023-01-03T00:39:46.416Z,14.33
2023-01-03T00:42:14.136Z,14.52
2023-01-03T00:44:41.435Z,14.37
2023-01-03T00:47:09.117Z,14.50
2023-01-03T00:49:36.600Z,14.71
2023-01-03T00:52:04.057Z,14.30
2023-01-03T00:54:34.316Z,11.81
2023-01-03T00:57:01.660Z,12.45
2023-01-03T00:59:28.957Z,13.96
2023-01-03T01:01:57.524Z,13.86
2023-01-03T01:04:31.489Z,13.83
2023-01-03T01:07:02.609Z,14.58
2023-01-03T01:09:37.741Z,14.45
2023-01-03T01:12:07.558Z,14.58
2023-01-03T01:14:35.399Z,14.40
2023-01-03T01:17:08.743Z,14.91
2023-01-03T01:19:41.376Z,14.94
2023-01-03T01:22:09.445Z,14.48
2023-01-03T01:24:36.804Z,14.35
2023-01-03T01:27:06.938Z,14.59
2023-01-03T01:29:34.297Z,14.53
2023-01-03T01:32:02.043Z,14.88
2023-01-03T01:34:30.615Z,14.95
2023-01-03T01:36:58.047Z,15.07
2023-01-03T01:39:27.488Z,15.03
2023-01-03T01:42:20.733Z,14.56
2023-01-03T01:45:01.387Z,14.89
2023-01-03T01:48:08.487Z,15.00
2023-01-03T01:50:52.734Z,15.20
2023-01-03T01:53:28.708Z,14.91
2023-01-03T01:56:50.239Z,15.08
2023-01-03T01:59:21.245Z,15.00
2023-01-03T02:01:50.402Z,15.17
2023-01-03T02:04:25.815Z,15.48
2023-01-03T02:06:54.489Z,15.21
2023-01-03T02:09:21.845Z,15.29
2023-01-03T02:12:36.318Z,15.34
2023-01-03T02:15:55.181Z,15.74
2023-01-03T02:19:04.676Z,15.72
2023-01-03T02:21:53.441Z,15.75
2023-01-03T02:24:54.783Z,15.14
2023-01-03T02:27:43.449Z,15.77
2023-01-03T02:31:32.136Z,15.38
2023-01-03T02:34:35.041Z,15.07
2023-01-03T02:37:57.805Z,15.87
2023-01-03T02:40:47.637Z,14.45
2023-01-03T02:43:42.894Z,14.87
2023-01-03T02:46:27.828Z,13.09
2023-01-03T02:49:18.781Z,13.84
2023-01-03T02:52:02.843Z,15.20
2023-01-03T02:54:55.239Z,15.05
2023-01-03T02:57:36.521Z,15.04
2023-01-03T03:00:14.202Z,12.77
2023-01-03T03:02:50.386Z,11.24
2023-01-03T03:05:28.747Z,12.83
2023-01-03T03:07:56.130Z,13.80
2023-01-03T03:10:43.200Z,14.18
2023-01-03T03:13:39.069Z,12.26
2023-01-03T03:16:41.108Z,13.63
2023-01-03T03:19:55.119Z,14.65
2023-01-03T03:22:59.560Z,15.08
2023-01-03T03:25:55.082Z,15.14
2023-01-03T03:28:35.756Z,15.25
2023-01-03T03:31:25.377Z,14.92
2023-01-03T03:34:09.620Z,15.15
2023-01-03T03:37:17.099Z,15.22
2023-01-03T03:40:05.916Z,14.97
2023-01-03T03:43:11.397Z,15.51
2023-01-03T03:46:02.903Z,15.35
2023-01-03T03:49:19.171Z,15.03
2023-01-03T03:51:50.393Z,15.53
2023-01-03T03:54:23.081Z,14.81
2023-01-03T03:57:04.456Z,12.85
2023-01-03T03:59:34.138Z,12.32
2023-01-03T04:02:07.055Z,13.89
2023-01-03T04:04:44.558Z,14.44
2023-01-03T04:07:11.936Z,14.87
2023-01-03T04:09:39.728Z,14.90
2023-01-03T04:12:07.373Z,14.93
2023-01-03T04:14:34.611Z,15.04
2023-01-03T04:17:01.902Z,14.68
2023-01-03T04:19:37.465Z,14.37
2023-01-03T04:22:05.794Z,14.12
2023-01-03T04:24:33.110Z,14.20
2023-01-03T04:27:00.414Z,14.73
2023-01-03T04:29:27.722Z,14.99
2023-01-03T04:31:55.427Z,14.82
2023-01-03T04:34:22.963Z,15.08
2023-01-03T04:36:50.076Z,14.96
2023-01-03T04:39:17.302Z,15.18
2023-01-03T04:41:44.586Z,15.18
2023-01-03T04:44:11.943Z,15.14
2023-01-03T04:46:45.112Z,15.18
2023-01-03T04:49:15.552Z,15.69
2023-01-03T04:51:42.789Z,15.38
2023-01-03T04:54:10.416Z,15.59
2023-01-03T04:56:38.736Z,15.76
2023-01-03T04:59:06.049Z,16.02
2023-01-03T05:01:33.490Z,15.75
2023-01-03T05:04:06.548Z,15.70
2023-01-03T05:06:34.042Z,15.65
2023-01-03T05:09:01.329Z,16.07
2023-01-03T05:11:28.610Z,15.92
2023-01-03T05:13:55.909Z,16.06
2023-01-03T05:16:23.194Z,15.82
2023-01-03T05:18:53.873Z,16.02
2023-01-03T05:21:41.530Z,16.24
2023-01-03T05:24:30.553Z,16.19
2023-01-03T05:27:02.749Z,16.34
2023-01-03T05:29:31.353Z,16.40
2023-01-03T05:31:58.669Z,16.53
2023-01-03T05:34:25.868Z,16.52
2023-01-03T05:36:53.167Z,16.61
2023-01-03T05:39:20.448Z,16.48
2023-01-03T05:41:59.637Z,16.22
2023-01-03T05:44:32.269Z,16.14
2023-01-03T05:47:01.215Z,16.29
2023-01-03T05:49:28.778Z,16.32
2023-01-03T05:51:56.173Z,16.31
2023-01-03T05:54:23.382Z,16.05
2023-01-03T05:56:51.534Z,15.59
2023-01-03T05:59:21.291Z,15.39
2023-01-03T06:01:49.263Z,15.43
2023-01-03T06:04:16.609Z,15.22
2023-01-03T06:06:44.131Z,15.50
2023-01-03T06:09:11.451Z,16.03
2023-01-03T06:11:41.132Z,16.06
2023-01-03T06:14:08.587Z,16.48
2023-01-03T06:16:54.450Z,16.79
2023-01-03T06:19:21.875Z,16.94
2023-01-03T06:21:49.023Z,16.71
2023-01-03T06:24:16.416Z,16.31
2023-01-03T06:26:43.548Z,16.21
2023-01-03T06:29:10.840Z,16.46
2023-01-03T06:31:38.231Z,16.52
2023-01-03T06:34:05.308Z,16.55
2023-01-03T06:36:34.551Z,16.48
2023-01-03T06:39:02.109Z,16.31
2023-01-03T06:41:29.423Z,16.44
2023-01-03T06:43:57.103Z,16.55
2023-01-03T06:46:42.929Z,16.54
2023-01-03T06:49:37.206Z,16.69
2023-01-03T06:52:30.020Z,16.51
2023-01-03T06:54:57.286Z,16.65
2023-01-03T06:57:26.423Z,16.31
2023-01-03T06:59:55.523Z,16.22
2023-01-03T07:02:23.025Z,16.18
2023-01-03T07:04:50.483Z,16.17
2023-01-03T07:07:17.822Z,16.16
2023-01-03T07:09:45.353Z,16.31
2023-01-03T07:12:31.492Z,16.14
2023-01-03T07:14:58.751Z,16.10
2023-01-03T07:17:27.049Z,15.72
2023-01-03T07:19:54.380Z,15.73
2023-01-03T07:22:21.563Z,15.51
2023-01-03T07:24:48.770Z,15.51
2023-01-03T07:27:16.016Z,15.50
2023-01-03T07:29:43.335Z,15.19
2023-01-03T07:32:10.516Z,15.45
2023-01-03T07:34:37.745Z,15.75
2023-01-03T07:37:05.004Z,15.67
2023-01-03T07:39:45.751Z,15.47
2023-01-03T07:42:33.836Z,15.95
2023-01-03T07:45:01.130Z,15.68
2023-01-03T07:47:28.581Z,15.95
2023-01-03T07:49:57.018Z,15.70
2023-01-03T07:52:24.300Z,16.12
2023-01-03T07:54:51.711Z,16.42
2023-01-03T07:57:19.002Z,16.55
2023-01-03T07:59:46.532Z,16.92
2023-01-03T08:02:14.553Z,16.61
2023-01-03T08:04:41.787Z,17.07
2023-01-03T08:07:09.226Z,15.65
2023-01-03T08:09:55.066Z,16.10
2023-01-03T08:12:41.753Z,16.65
2023-01-03T08:15:10.414Z,17.06
2023-01-03T08:17:37.622Z,15.12
2023-01-03T08:20:05.680Z,14.67
2023-01-03T08:22:34.148Z,14.60
2023-01-03T08:25:02.480Z,15.76
2023-01-03T08:27:29.777Z,16.00
2023-01-03T08:29:57.173Z,16.20
2023-01-03T08:32:24.610Z,16.58
2023-01-03T08:34:52.577Z,16.40
2023-01-03T08:37:20.414Z,16.00
2023-01-03T08:40:03.583Z,15.82
2023-01-03T08:42:33.166Z,16.36
2023-01-03T08:45:11.624Z,16.92
2023-01-03T08:47:39.164Z,17.08
2023-01-03T08:50:09.227Z,15.66
2023-01-03T08:52:36.619Z,14.98
2023-01-03T08:55:05.337Z,15.17
2023-01-03T08:57:32.766Z,15.90
2023-01-03T08:59:59.889Z,16.77
2023-01-03T09:02:27.374Z,16.35
2023-01-03T09:04:54.702Z,17.00
2023-01-03T09:07:21.960Z,16.84
2023-01-03T09:09:49.283Z,17.18
2023-01-03T09:12:16.290Z,17.44
2023-01-03T09:14:43.506Z,17.24
2023-01-03T09:17:12.985Z,16.85
2023-01-03T09:19:40.333Z,17.12
2023-01-03T09:22:07.512Z,17.28
2023-01-03T09:24:35.074Z,15.40
2023-01-03T09:27:02.483Z,16.16
2023-01-03T09:29:45.282Z,16.94
2023-01-03T09:32:21.937Z,17.30
2023-01-03T09:34:50.808Z,15.27
2023-01-03T09:37:18.087Z,14.65
2023-01-03T09:39:45.344Z,15.45
2023-01-03T09:42:48.240Z,16.53
2023-01-03T09:45:29.887Z,15.21
2023-01-03T09:47:58.672Z,15.53
2023-01-03T09:50:56.697Z,16.43
2023-01-03T09:53:59.259Z,16.42
2023-01-03T09:56:32.801Z,16.84
2023-01-03T09:59:36.032Z,17.00
2023-01-03T10:03:02.057Z,17.01
2023-01-03T10:05:48.146Z,17.59
2023-01-03T10:08:46.476Z,17.59
2023-01-03T10:11:34.268Z,17.73
2023-01-03T10:14:04.277Z,17.91
2023-01-03T10:16:56.261Z,18.71
2023-01-03T10:19:49.253Z,18.21
2023-01-03T10:22:32.816Z,18.71
2023-01-03T10:25:23.070Z,19.58
2023-01-03T10:27:57.420Z,20.01
2023-01-03T10:31:26.550Z,19.47
2023-01-03T10:33:53.812Z,20.26
2023-01-03T10:36:21.961Z,20.51
2023-01-03T10:39:02.013Z,20.36
2023-01-03T10:41:52.408Z,21.18
2023-01-03T10:44:26.063Z,20.91
2023-01-03T10:46:57.704Z,21.37
2023-01-03T10:49:31.504Z,21.60
2023-01-03T10:52:22.984Z,20.95
2023-01-03T10:55:14.615Z,20.27
2023-01-03T10:57:56.831Z,21.82
2023-01-03T11:00:38.105Z,22.69
2023-01-03T11:03:26.539Z,22.22
2023-01-03T11:05:56.926Z,22.43
2023-01-03T11:08:49.433Z,23.50
2023-01-03T11:11:32.719Z,24.68
2023-01-03T11:14:23.523Z,25.17
2023-01-03T11:16:55.993Z,24.47
2023-01-03T11:19:32.318Z,23.36
2023-01-03T11:22:06.320Z,23.77
2023-01-03T11:25:03.509Z,25.47
2023-01-03T11:28:06.864Z,23.17
2023-01-03T11:31:08.598Z,23.11
2023-01-03T11:34:12.702Z,22.69
2023-01-03T11:37:22.843Z,21.18
2023-01-03T11:40:27.142Z,20.90
2023-01-03T11:43:42.091Z,21.00
2023-01-03T11:46:30.140Z,21.14
2023-01-03T11:49:15.474Z,17.90
2023-01-03T11:52:30.417Z,17.40
2023-01-03T11:54:58.672Z,18.59
2023-01-03T11:57:41.204Z,20.07
2023-01-03T12:00:30.226Z,21.15
2023-01-03T12:03:55.445Z,20.97
2023-01-03T12:06:46.783Z,21.34
2023-01-03T12:09:36.935Z,22.01
2023-01-03T12:12:34.122Z,21.58
2023-01-03T12:15:24.214Z,22.20
2023-01-03T12:18:06.943Z,22.16
2023-01-03T12:20:47.804Z,20.77
2023-01-03T12:23:45.065Z,21.09
2023-01-03T12:26:16.741Z,21.33
2023-01-03T12:28:57.786Z,21.24
2023-01-03T12:32:09.191Z,22.72
2023-01-03T12:35:29.553Z,22.02
2023-01-03T12:37:59.438Z,19.63
2023-01-03T12:40:45.348Z,19.26
2023-01-03T12:43:27.598Z,21.22
2023-01-03T12:46:13.162Z,18.97
2023-01-03T12:49:35.838Z,18.87
2023-01-03T12:52:03.139Z,19.66
2023-01-03T12:55:08.949Z,20.27
2023-01-03T12:57:42.571Z,17.37
2023-01-03T13:00:35.811Z,16.79
2023-01-03T13:03:19.169Z,16.88
2023-01-03T13:05:58.793Z,16.52
2023-01-03T13:08:50.036Z,15.90
2023-01-03T13:11:32.164Z,17.06
2023-01-03T13:14:23.293Z,16.73
2023-01-03T13:16:59.980Z,15.48
2023-01-03T13:19:36.162Z,15.28
2023-01-03T13:22:52.149Z,16.17
2023-01-03T13:25:41.756Z,16.88
2023-01-03T13:28:20.998Z,17.56
2023-01-03T13:30:51.635Z,16.55
2023-01-03T13:33:24.526Z,16.54
2023-01-03T13:36:02.384Z,17.18
2023-01-03T13:38:36.188Z,17.05
2023-01-03T13:41:32.519Z,20.04
2023-01-03T13:44:15.767Z,20.14
2023-01-03T13:46:45.188Z,18.60
2023-01-03T13:49:23.116Z,17.57
2023-01-03T13:51:59.600Z,19.12
2023-01-03T13:54:55.698Z,19.09
2023-01-03T13:57:54.340Z,18.81
2023-01-03T14:00:23.451Z,19.22
2023-01-03T14:03:24.327Z,19.46
2023-01-03T14:06:32.386Z,16.85
2023-01-03T14:09:42.680Z,18.59
2023-01-03T14:12:31.443Z,18.96
2023-01-03T14:14:59.650Z,16.12
2023-01-03T14:17:40.183Z,16.73
2023-01-03T14:20:14.168Z,15.14
2023-01-03T14:22:49.826Z,14.82
2023-01-03T14:25:51.680Z,14.94
2023-01-03T14:28:28.014Z,15.68
2023-01-03T14:30:55.113Z,17.15
2023-01-03T14:33:27.389Z,17.06
2023-01-03T14:36:14.816Z,16.16
2023-01-03T14:39:05.438Z,15.96
2023-01-03T14:41:39.346Z,16.23
2023-01-03T14:44:17.908Z,15.77
2023-01-03T14:46:59.589Z,16.39
2023-01-03T14:49:40.312Z,16.12
2023-01-03T14:52:34.066Z,16.70
2023-01-03T14:55:31.265Z,17.00
2023-01-03T14:58:03.783Z,18.10
2023-01-03T15:00:39.910Z,17.49
2023-01-03T15:03:13.486Z,16.14
2023-01-03T15:05:45.368Z,15.97
2023-01-03T15:08:15.723Z,15.51
2023-01-03T15:10:54.516Z,15.76
2023-01-03T15:13:37.742Z,16.53
2023-01-03T15:16:33.758Z,16.10
2023-01-03T15:19:13.830Z,15.68
2023-01-03T15:21:43.274Z,16.67
2023-01-03T15:24:44.570Z,17.10
2023-01-03T15:27:46.721Z,15.93
2023-01-03T15:30:23.700Z,15.17
2023-01-03T15:33:04.026Z,15.48
2023-01-03T15:35:39.606Z,15.77
2023-01-03T15:38:24.119Z,15.27
2023-01-03T15:40:54.309Z,15.96
2023-01-03T15:43:37.806Z,16.23
2023-01-03T15:46:23.557Z,16.54
2023-01-03T15:48:59.403Z,15.60
2023-01-03T15:51:28.707Z,15.07
2023-01-03T15:53:56.212Z,15.23
2023-01-03T15:56:35.188Z,15.66
2023-01-03T15:59:09.548Z,15.81
2023-01-03T16:01:36.852Z,15.67
2023-01-03T16:04:04.239Z,15.70
2023-01-03T16:06:32.815Z,16.36
2023-01-03T16:09:01.118Z,16.69
2023-01-03T16:11:34.197Z,16.77
2023-01-03T16:14:19.159Z,16.83
2023-01-03T16:16:52.480Z,16.95
2023-01-03T16:19:25.041Z,17.19
2023-01-03T16:24:52.545Z,16.97
2023-01-03T16:27:23.550Z,16.59
2023-01-03T16:29:50.892Z,16.92
2023-01-03T16:32:17.988Z,16.99
2023-01-03T16:34:45.435Z,16.78
2023-01-03T16:37:13.072Z,16.91
2023-01-03T16:39:47.392Z,17.03
2023-01-03T16:42:15.462Z,17.19
2023-01-03T16:44:49.131Z,16.88
2023-01-03T16:47:22.963Z,16.49
2023-01-03T16:49:58.445Z,16.85
2023-01-03T16:52:43.445Z,16.52
2023-01-03T16:55:34.436Z,16.70
2023-01-03T16:58:01.828Z,16.58
2023-01-03T17:00:32.420Z,16.77
2023-01-03T17:03:01.008Z,16.93
2023-01-03T17:05:35.522Z,16.98
2023-01-03T17:08:20.446Z,15.73
2023-01-03T17:10:56.015Z,15.93
2023-01-03T17:13:39.535Z,16.23
2023-01-03T17:16:18.849Z,16.25
2023-01-03T17:22:28.168Z,15.65
2023-01-03T17:24:59.122Z,16.40
2023-01-03T17:27:33.213Z,15.58
2023-01-03T17:30:07.854Z,15.67
2023-01-03T17:32:36.733Z,15.60
2023-01-03T17:35:05.224Z,15.96
2023-01-03T17:37:45.680Z,15.71
2023-01-03T17:40:33.229Z,16.27
2023-01-03T17:43:02.950Z,15.74
2023-01-03T17:45:53.588Z,15.39
2023-01-03T17:48:42.721Z,15.15
2023-01-03T17:51:12.872Z,15.89
2023-01-03T17:53:41.971Z,15.86
2023-01-03T17:56:19.980Z,16.04
2023-01-03T17:59:05.760Z,15.79
2023-01-03T18:01:42.040Z,15.43
2023-01-03T18:04:14.809Z,15.51
2023-01-03T18:06:44.825Z,15.77
2023-01-03T18:09:16.092Z,15.67
2023-01-03T18:11:43.522Z,15.74
2023-01-03T18:14:17.612Z,15.16
2023-01-03T18:16:48.853Z,15.62
2023-01-03T18:19:21.914Z,15.61
2023-01-03T18:21:50.275Z,15.56
2023-01-03T18:24:26.887Z,14.70
2023-01-03T18:26:58.189Z,15.11
2023-01-03T18:29:30.014Z,14.59
2023-01-03T18:32:05.532Z,14.66
2023-01-03T18:34:33.919Z,14.85
2023-01-03T18:37:03.220Z,14.77
2023-01-03T18:39:31.814Z,14.57
2023-01-03T18:42:19.744Z,14.33
2023-01-03T18:44:47.328Z,14.32
2023-01-03T18:47:16.088Z,14.21
2023-01-03T18:49:43.573Z,14.30
2023-01-03T18:52:30.709Z,14.32
2023-01-03T18:55:01.103Z,14.31
2023-01-03T18:57:33.490Z,14.43
2023-01-03T19:00:01.129Z,14.46
2023-01-03T19:02:30.821Z,14.61
2023-01-03T19:04:59.808Z,14.83
2023-01-03T19:07:40.084Z,15.19
2023-01-03T19:10:31.531Z,14.33
2023-01-03T19:12:59.613Z,14.25
2023-01-03T19:15:30.266Z,14.88
2023-01-03T19:17:59.185Z,14.76
2023-01-03T19:20:27.213Z,15.08
2023-01-03T19:22:56.410Z,13.64
2023-01-03T19:25:31.579Z,14.55
2023-01-03T19:28:09.809Z,14.64
2023-01-03T19:30:47.122Z,14.71
2023-01-03T19:33:19.587Z,15.11
2023-01-03T19:35:51.610Z,15.40
2023-01-03T19:38:22.165Z,14.51
2023-01-03T19:40:52.855Z,14.90
2023-01-03T19:43:22.893Z,15.15
2023-01-03T19:45:53.793Z,15.04
2023-01-03T19:48:25.060Z,15.12
2023-01-03T19:50:55.506Z,15.24
2023-01-03T19:53:22.994Z,14.95
2023-01-03T19:55:52.526Z,15.29
2023-01-03T19:58:42.737Z,15.78
2023-01-03T20:01:18.533Z,15.41
2023-01-03T20:03:48.482Z,15.57
2023-01-03T20:06:19.922Z,15.57
2023-01-03T20:08:48.473Z,15.25
2023-01-03T20:11:21.898Z,15.64
2023-01-03T20:13:49.964Z,16.22
2023-01-03T20:16:18.100Z,15.93
2023-01-03T20:18:45.756Z,15.84
2023-01-03T20:21:23.064Z,15.61
2023-01-03T20:23:56.066Z,15.39
2023-01-03T20:26:31.298Z,15.33
2023-01-03T20:29:00.727Z,15.19
2023-01-03T20:31:29.052Z,14.84
2023-01-03T20:33:56.543Z,14.95
2023-01-03T20:36:32.832Z,14.77
2023-01-03T20:39:00.801Z,14.48
2023-01-03T20:41:37.465Z,14.53
2023-01-03T20:44:09.810Z,15.10
2023-01-03T20:46:39.589Z,15.16
2023-01-03T20:49:23.239Z,15.07
2023-01-03T20:51:52.771Z,15.50
2023-01-03T20:54:21.231Z,15.22
2023-01-03T20:56:48.803Z,15.84
2023-01-03T20:59:20.231Z,16.27
2023-01-03T21:01:49.648Z,15.17
2023-01-03T21:04:17.685Z,13.97
2023-01-03T21:06:48.419Z,15.50
2023-01-03T21:09:15.818Z,15.95
2023-01-03T21:11:43.321Z,16.13
2023-01-03T21:14:11.256Z,16.10
2023-01-03T21:16:45.519Z,16.14
2023-01-03T21:19:17.222Z,15.50
2023-01-03T21:21:49.546Z,15.26
2023-01-03T21:24:20.961Z,15.34
2023-01-03T21:26:49.690Z,15.37
2023-01-03T21:29:17.772Z,15.24
2023-01-03T21:31:45.501Z,15.06
2023-01-03T21:34:20.275Z,15.23
2023-01-03T21:36:48.831Z,15.01
2023-01-03T21:39:17.813Z,15.87
2023-01-03T21:42:03.963Z,16.18
2023-01-03T21:44:31.207Z,14.38
2023-01-03T21:46:59.098Z,14.79
2023-01-03T21:49:26.424Z,15.73
2023-01-03T21:51:53.821Z,16.07
2023-01-03T21:54:20.980Z,15.66
2023-01-03T21:56:48.873Z,15.76
2023-01-03T21:59:16.847Z,15.39
2023-01-03T22:02:04.908Z,15.22
2023-01-03T22:04:33.720Z,15.10
2023-01-03T22:07:01.880Z,15.30
2023-01-03T22:09:50.378Z,15.39
2023-01-03T22:12:20.317Z,15.66
2023-01-03T22:14:48.089Z,14.46
2023-01-03T22:17:16.661Z,14.14
2023-01-03T22:19:44.550Z,14.12
2023-01-03T22:22:12.301Z,13.90
2023-01-03T22:24:39.635Z,14.58
2023-01-03T22:27:07.520Z,15.06
2023-01-03T22:29:35.136Z,15.22
2023-01-03T22:32:02.430Z,15.47
2023-01-03T22:34:29.800Z,14.55
2023-01-03T22:36:57.117Z,14.92
2023-01-03T22:39:25.123Z,15.38
2023-01-03T22:41:52.349Z,15.49
2023-01-03T22:44:19.923Z,15.48
2023-01-03T22:46:47.077Z,14.58
2023-01-03T22:49:14.428Z,15.13
2023-01-03T22:51:41.536Z,15.36
2023-01-03T22:54:08.683Z,15.30
2023-01-03T22:56:36.144Z,14.84
2023-01-03T22:59:03.224Z,14.84
2023-01-03T23:01:31.652Z,14.74
2023-01-03T23:04:01.419Z,14.84
2023-01-03T23:06:31.721Z,14.45
2023-01-03T23:08:59.871Z,14.38
2023-01-03T23:11:49.419Z,14.44
2023-01-03T23:14:19.893Z,14.41
2023-01-03T23:16:49.061Z,14.49
2023-01-03T23:19:24.939Z,14.27
2023-01-03T23:21:54.141Z,14.50
2023-01-03T23:24:25.282Z,14.98
2023-01-03T23:26:53.135Z,14.73
2023-01-03T23:29:22.353Z,15.02
2023-01-03T23:31:50.237Z,14.93
2023-01-03T23:34:17.371Z,14.15
2023-01-03T23:36:44.716Z,13.38
2023-01-03T23:39:15.054Z,13.43
2023-01-03T23:41:42.433Z,13.61
2023-01-03T23:44:10.025Z,13.79
2023-01-03T23:46:37.471Z,14.17
2023-01-03T23:49:04.914Z,13.95
2023-01-03T23:51:32.136Z,13.29
2023-01-03T23:54:00.012Z,13.37
2023-01-03T23:56:27.326Z,12.72
2023-01-03T23:58:54.469Z,13.61
